Mentone, Indiana
Current Conditions -  °F | °C
As of 4:35 PM on Monday 24 Nov 2014 (Local Time) from KRCR Reporting Station
Broken Clouds Broken Clouds  
Wind Chill: 25°   Ceiling: 1700
Heat Index: 36°   Visibility: 7mi
Dew Point: 32°   Wind: 20mph
Humidity: 87%   Direction: 230°SW
Pressure: 29.61"   Gusts: 26mph
Location:  41.17°N, 86.03°W
Report Text: KRCR 242135Z AUTO 23017G23KT 7SM BKN017 02/00 A2961 RMK AO2
Loading
Personal Weather Stations






























Interactive Weather Map New forecast layout! Learn more

10-Day Weather Forecast

Advertisements
Track Severe Weather on mobile